sensor_id;sensor_type;location;lat;lon;timestamp;temperature;humidity
42715;DHT22;28351;51.480;5.706;2023-01-15T00:00:19;7.20;99.90
42715;DHT22;28351;51.480;5.706;2023-01-15T00:02:45;7.10;99.90
42715;DHT22;28351;51.480;5.706;2023-01-15T00:05:20;7.10;99.90
42715;DHT22;28351;51.480;5.706;2023-01-15T00:07:45;7.20;99.90
42715;DHT22;28351;51.480;5.706;2023-01-15T00:10:14;7.10;99.90
42715;DHT22;28351;51.480;5.706;2023-01-15T00:12:39;7.10;99.90
42715;DHT22;28351;51.480;5.706;2023-01-15T00:15:05;7.20;99.90
42715;DHT22;28351;51.480;5.706;2023-01-15T00:17:31;7.10;99.90
42715;DHT22;28351;51.480;5.706;2023-01-15T00:19:57;7.20;99.90
42715;DHT22;28351;51.480;5.706;2023-01-15T00:22:22;7.10;99.90
42715;DHT22;28351;51.480;5.706;2023-01-15T00:24:48;7.00;99.90
42715;DHT22;28351;51.480;5.706;2023-01-15T00:27:32;7.10;99.90
42715;DHT22;28351;51.480;5.706;2023-01-15T00:30:05;7.00;99.90
42715;DHT22;28351;51.480;5.706;2023-01-15T00:32:31;7.00;99.90
42715;DHT22;28351;51.480;5.706;2023-01-15T00:35:00;7.00;99.90
42715;DHT22;28351;51.480;5.706;2023-01-15T00:37:26;7.00;99.90
42715;DHT22;28351;51.480;5.706;2023-01-15T00:39:51;7.00;99.90
42715;DHT22;28351;51.480;5.706;2023-01-15T00:42:17;6.90;99.90
42715;DHT22;28351;51.480;5.706;2023-01-15T00:44:43;6.90;99.90
42715;DHT22;28351;51.480;5.706;2023-01-15T00:47:08;7.00;99.90
42715;DHT22;28351;51.480;5.706;2023-01-15T00:49:42;7.00;99.90
42715;DHT22;28351;51.480;5.706;2023-01-15T00:52:08;7.00;99.90
42715;DHT22;28351;51.480;5.706;2023-01-15T00:54:33;7.00;99.90
42715;DHT22;28351;51.480;5.706;2023-01-15T00:56:59;7.00;99.90
42715;DHT22;28351;51.480;5.706;2023-01-15T00:59:25;7.00;99.90
42715;DHT22;28351;51.480;5.706;2023-01-15T01:01:50;7.00;99.90
42715;DHT22;28351;51.480;5.706;2023-01-15T01:04:16;7.00;99.90
42715;DHT22;28351;51.480;5.706;2023-01-15T01:06:42;7.10;99.90
42715;DHT22;28351;51.480;5.706;2023-01-15T01:09:14;7.00;99.90
42715;DHT22;28351;51.480;5.706;2023-01-15T01:11:40;7.00;99.90
42715;DHT22;28351;51.480;5.706;2023-01-15T01:14:08;7.10;99.90
42715;DHT22;28351;51.480;5.706;2023-01-15T01:16:36;7.10;99.90
42715;DHT22;28351;51.480;5.706;2023-01-15T01:19:17;7.10;99.90
42715;DHT22;28351;51.480;5.706;2023-01-15T01:21:43;7.00;99.90
42715;DHT22;28351;51.480;5.706;2023-01-15T01:24:17;7.10;99.90
42715;DHT22;28351;51.480;5.706;2023-01-15T01:26:43;7.10;99.90
42715;DHT22;28351;51.480;5.706;2023-01-15T01:29:19;7.10;99.90
42715;DHT22;28351;51.480;5.706;2023-01-15T01:31:45;7.00;99.90
42715;DHT22;28351;51.480;5.706;2023-01-15T01:34:12;7.00;99.90
42715;DHT22;28351;51.480;5.706;2023-01-15T01:36:40;7.10;99.90
42715;DHT22;28351;51.480;5.706;2023-01-15T01:39:08;7.10;99.90
42715;DHT22;28351;51.480;5.706;2023-01-15T01:41:36;7.10;99.90
42715;DHT22;28351;51.480;5.706;2023-01-15T01:47:05;7.00;99.90
42715;DHT22;28351;51.480;5.706;2023-01-15T01:49:32;7.10;99.90
42715;DHT22;28351;51.480;5.706;2023-01-15T01:52:07;7.00;99.90
42715;DHT22;28351;51.480;5.706;2023-01-15T01:54:34;7.00;99.90
42715;DHT22;28351;51.480;5.706;2023-01-15T01:57:01;7.10;99.90
42715;DHT22;28351;51.480;5.706;2023-01-15T01:59:28;7.10;99.90
42715;DHT22;28351;51.480;5.706;2023-01-15T02:01:54;7.20;99.90
42715;DHT22;28351;51.480;5.706;2023-01-15T02:04:21;7.10;99.90
42715;DHT22;28351;51.480;5.706;2023-01-15T02:06:48;7.10;99.90
42715;DHT22;28351;51.480;5.706;2023-01-15T02:09:15;7.10;99.90
42715;DHT22;28351;51.480;5.706;2023-01-15T02:11:43;7.10;99.90
42715;DHT22;28351;51.480;5.706;2023-01-15T02:14:21;7.10;99.90
42715;DHT22;28351;51.480;5.706;2023-01-15T02:17:05;7.00;99.90
42715;DHT22;28351;51.480;5.706;2023-01-15T02:20:09;7.00;99.90
42715;DHT22;28351;51.480;5.706;2023-01-15T02:27:56;7.10;99.90
42715;DHT22;28351;51.480;5.706;2023-01-15T02:30:34;7.10;99.90
42715;DHT22;28351;51.480;5.706;2023-01-15T02:33:24;7.10;99.90
42715;DHT22;28351;51.480;5.706;2023-01-15T02:35:56;7.10;99.90
42715;DHT22;28351;51.480;5.706;2023-01-15T02:38:34;7.00;99.90
42715;DHT22;28351;51.480;5.706;2023-01-15T02:41:01;7.00;99.90
42715;DHT22;28351;51.480;5.706;2023-01-15T02:43:32;7.00;99.90
42715;DHT22;28351;51.480;5.706;2023-01-15T02:46:01;7.00;99.90
42715;DHT22;28351;51.480;5.706;2023-01-15T02:48:29;7.00;99.90
42715;DHT22;28351;51.480;5.706;2023-01-15T02:51:07;7.10;99.90
42715;DHT22;28351;51.480;5.706;2023-01-15T02:53:37;7.00;99.90
42715;DHT22;28351;51.480;5.706;2023-01-15T02:56:09;7.10;99.90
42715;DHT22;28351;51.480;5.706;2023-01-15T02:58:38;7.00;99.90
42715;DHT22;28351;51.480;5.706;2023-01-15T03:01:10;7.10;99.90
42715;DHT22;28351;51.480;5.706;2023-01-15T03:03:46;7.00;99.90
42715;DHT22;28351;51.480;5.706;2023-01-15T03:06:51;7.00;99.90
42715;DHT22;28351;51.480;5.706;2023-01-15T03:09:20;7.00;99.90
42715;DHT22;28351;51.480;5.706;2023-01-15T03:11:51;7.00;99.90
42715;DHT22;28351;51.480;5.706;2023-01-15T03:14:23;7.00;99.90
42715;DHT22;28351;51.480;5.706;2023-01-15T03:16:56;7.00;99.90
42715;DHT22;28351;51.480;5.706;2023-01-15T03:22:08;7.00;99.90
42715;DHT22;28351;51.480;5.706;2023-01-15T03:27:09;7.00;99.90
42715;DHT22;28351;51.480;5.706;2023-01-15T03:29:40;6.90;99.90
42715;DHT22;28351;51.480;5.706;2023-01-15T03:32:07;6.90;99.90
42715;DHT22;28351;51.480;5.706;2023-01-15T03:34:39;6.90;99.90
42715;DHT22;28351;51.480;5.706;2023-01-15T03:37:09;6.80;99.90
42715;DHT22;28351;51.480;5.706;2023-01-15T03:39:35;6.80;99.90
42715;DHT22;28351;51.480;5.706;2023-01-15T03:45:17;6.80;99.90
42715;DHT22;28351;51.480;5.706;2023-01-15T03:48:04;6.80;99.90
42715;DHT22;28351;51.480;5.706;2023-01-15T03:53:19;6.80;99.90
42715;DHT22;28351;51.480;5.706;2023-01-15T03:58:28;6.80;99.90
42715;DHT22;28351;51.480;5.706;2023-01-15T04:00:59;6.80;99.90
42715;DHT22;28351;51.480;5.706;2023-01-15T04:03:27;6.80;99.90
42715;DHT22;28351;51.480;5.706;2023-01-15T04:05:56;6.90;99.90
42715;DHT22;28351;51.480;5.706;2023-01-15T04:08:24;6.90;99.90
42715;DHT22;28351;51.480;5.706;2023-01-15T04:10:55;7.00;99.90
42715;DHT22;28351;51.480;5.706;2023-01-15T04:13:21;6.90;99.90
42715;DHT22;28351;51.480;5.706;2023-01-15T04:15:47;6.90;99.90
42715;DHT22;28351;51.480;5.706;2023-01-15T04:18:13;6.80;99.90
42715;DHT22;28351;51.480;5.706;2023-01-15T04:20:39;6.80;99.90
42715;DHT22;28351;51.480;5.706;2023-01-15T04:23:04;6.80;99.90
42715;DHT22;28351;51.480;5.706;2023-01-15T04:25:30;6.90;99.90
42715;DHT22;28351;51.480;5.706;2023-01-15T04:27:55;6.90;99.90
42715;DHT22;28351;51.480;5.706;2023-01-15T04:30:21;6.90;99.90
42715;DHT22;28351;51.480;5.706;2023-01-15T04:32:48;6.90;99.90
42715;DHT22;28351;51.480;5.706;2023-01-15T04:35:15;6.80;99.90
42715;DHT22;28351;51.480;5.706;2023-01-15T04:37:40;6.90;99.90
42715;DHT22;28351;51.480;5.706;2023-01-15T04:40:07;6.90;99.90
42715;DHT22;28351;51.480;5.706;2023-01-15T04:42:33;6.80;99.90
42715;DHT22;28351;51.480;5.706;2023-01-15T04:45:17;6.80;99.90
42715;DHT22;28351;51.480;5.706;2023-01-15T04:47:43;6.90;99.90
42715;DHT22;28351;51.480;5.706;2023-01-15T04:50:09;6.90;99.90
42715;DHT22;28351;51.480;5.706;2023-01-15T04:52:36;6.90;99.90
42715;DHT22;28351;51.480;5.706;2023-01-15T04:55:02;6.80;99.90
42715;DHT22;28351;51.480;5.706;2023-01-15T04:57:28;6.80;99.90
42715;DHT22;28351;51.480;5.706;2023-01-15T04:59:53;6.80;99.90
42715;DHT22;28351;51.480;5.706;2023-01-15T05:02:19;6.80;99.90
42715;DHT22;28351;51.480;5.706;2023-01-15T05:04:45;6.90;99.90
42715;DHT22;28351;51.480;5.706;2023-01-15T05:07:10;6.80;99.90
42715;DHT22;28351;51.480;5.706;2023-01-15T05:09:36;6.80;99.90
42715;DHT22;28351;51.480;5.706;2023-01-15T05:12:02;6.80;99.90
42715;DHT22;28351;51.480;5.706;2023-01-15T05:14:27;6.80;99.90
42715;DHT22;28351;51.480;5.706;2023-01-15T05:16:53;6.90;99.90
42715;DHT22;28351;51.480;5.706;2023-01-15T05:19:19;7.00;99.90
42715;DHT22;28351;51.480;5.706;2023-01-15T05:21:44;6.90;99.90
42715;DHT22;28351;51.480;5.706;2023-01-15T05:24:15;6.90;99.90
42715;DHT22;28351;51.480;5.706;2023-01-15T05:26:41;6.90;99.90
42715;DHT22;28351;51.480;5.706;2023-01-15T05:29:08;6.90;99.90
42715;DHT22;28351;51.480;5.706;2023-01-15T05:31:34;6.80;99.90
42715;DHT22;28351;51.480;5.706;2023-01-15T05:34:00;7.00;99.90
42715;DHT22;28351;51.480;5.706;2023-01-15T05:36:28;6.90;99.90
42715;DHT22;28351;51.480;5.706;2023-01-15T05:38:54;6.90;99.90
42715;DHT22;28351;51.480;5.706;2023-01-15T05:41:22;6.90;99.90
42715;DHT22;28351;51.480;5.706;2023-01-15T05:44:09;6.90;99.90
42715;DHT22;28351;51.480;5.706;2023-01-15T05:46:37;6.90;99.90
42715;DHT22;28351;51.480;5.706;2023-01-15T05:49:06;6.90;99.90
42715;DHT22;28351;51.480;5.706;2023-01-15T05:51:36;6.90;99.90
42715;DHT22;28351;51.480;5.706;2023-01-15T05:54:03;6.90;99.90
42715;DHT22;28351;51.480;5.706;2023-01-15T05:56:29;6.90;99.90
42715;DHT22;28351;51.480;5.706;2023-01-15T05:58:54;6.90;99.90
42715;DHT22;28351;51.480;5.706;2023-01-15T06:01:20;6.80;99.90
42715;DHT22;28351;51.480;5.706;2023-01-15T06:03:46;6.80;99.90
42715;DHT22;28351;51.480;5.706;2023-01-15T06:06:14;6.80;99.90
42715;DHT22;28351;51.480;5.706;2023-01-15T06:08:40;6.60;99.90
42715;DHT22;28351;51.480;5.706;2023-01-15T06:11:06;6.40;99.90
42715;DHT22;28351;51.480;5.706;2023-01-15T06:13:58;6.30;99.90
42715;DHT22;28351;51.480;5.706;2023-01-15T06:16:24;6.20;99.90
42715;DHT22;28351;51.480;5.706;2023-01-15T06:18:50;6.10;99.90
42715;DHT22;28351;51.480;5.706;2023-01-15T06:21:15;6.20;99.90
42715;DHT22;28351;51.480;5.706;2023-01-15T06:23:42;6.30;99.90
42715;DHT22;28351;51.480;5.706;2023-01-15T06:26:11;6.30;99.90
42715;DHT22;28351;51.480;5.706;2023-01-15T06:28:37;6.20;99.90
42715;DHT22;28351;51.480;5.706;2023-01-15T06:31:05;6.30;99.90
42715;DHT22;28351;51.480;5.706;2023-01-15T06:33:30;6.20;99.90
42715;DHT22;28351;51.480;5.706;2023-01-15T06:35:56;6.30;99.90
42715;DHT22;28351;51.480;5.706;2023-01-15T06:38:21;6.20;99.90
42715;DHT22;28351;51.480;5.706;2023-01-15T06:40:48;6.20;99.90
42715;DHT22;28351;51.480;5.706;2023-01-15T06:43:13;6.30;99.90
42715;DHT22;28351;51.480;5.706;2023-01-15T06:46:00;6.20;99.90
42715;DHT22;28351;51.480;5.706;2023-01-15T06:48:45;6.20;99.90
42715;DHT22;28351;51.480;5.706;2023-01-15T06:51:11;6.20;99.90
42715;DHT22;28351;51.480;5.706;2023-01-15T06:53:40;6.20;99.90
42715;DHT22;28351;51.480;5.706;2023-01-15T06:56:05;6.20;99.90
42715;DHT22;28351;51.480;5.706;2023-01-15T06:58:31;6.20;99.90
42715;DHT22;28351;51.480;5.706;2023-01-15T07:00:57;6.30;99.90
42715;DHT22;28351;51.480;5.706;2023-01-15T07:03:22;6.20;99.90
42715;DHT22;28351;51.480;5.706;2023-01-15T07:05:48;6.40;99.90
42715;DHT22;28351;51.480;5.706;2023-01-15T07:08:14;6.30;99.90
42715;DHT22;28351;51.480;5.706;2023-01-15T07:10:39;6.30;99.90
42715;DHT22;28351;51.480;5.706;2023-01-15T07:13:08;6.20;99.90
42715;DHT22;28351;51.480;5.706;2023-01-15T07:15:34;6.30;99.90
42715;DHT22;28351;51.480;5.706;2023-01-15T07:17:59;6.20;99.90
42715;DHT22;28351;51.480;5.706;2023-01-15T07:20:25;6.10;99.90
42715;DHT22;28351;51.480;5.706;2023-01-15T07:22:51;6.10;99.90
42715;DHT22;28351;51.480;5.706;2023-01-15T07:25:17;6.10;99.90
42715;DHT22;28351;51.480;5.706;2023-01-15T07:27:45;6.20;99.90
42715;DHT22;28351;51.480;5.706;2023-01-15T07:30:11;6.20;99.90
42715;DHT22;28351;51.480;5.706;2023-01-15T07:32:37;6.20;99.90
42715;DHT22;28351;51.480;5.706;2023-01-15T07:35:02;6.30;99.90
42715;DHT22;28351;51.480;5.706;2023-01-15T07:37:31;6.30;99.90
42715;DHT22;28351;51.480;5.706;2023-01-15T07:39:57;6.30;99.90
42715;DHT22;28351;51.480;5.706;2023-01-15T07:42:22;6.30;99.90
42715;DHT22;28351;51.480;5.706;2023-01-15T07:45:08;6.30;99.90
42715;DHT22;28351;51.480;5.706;2023-01-15T07:47:53;6.30;99.90
42715;DHT22;28351;51.480;5.706;2023-01-15T07:50:37;6.20;99.90
42715;DHT22;28351;51.480;5.706;2023-01-15T07:53:03;6.20;99.90
42715;DHT22;28351;51.480;5.706;2023-01-15T07:55:29;6.20;99.90
42715;DHT22;28351;51.480;5.706;2023-01-15T07:57:54;6.10;99.90
42715;DHT22;28351;51.480;5.706;2023-01-15T08:00:22;6.10;99.90
42715;DHT22;28351;51.480;5.706;2023-01-15T08:02:48;6.00;99.90
42715;DHT22;28351;51.480;5.706;2023-01-15T08:05:15;6.00;99.90
42715;DHT22;28351;51.480;5.706;2023-01-15T08:07:41;6.10;99.90
42715;DHT22;28351;51.480;5.706;2023-01-15T08:10:09;6.10;99.90
42715;DHT22;28351;51.480;5.706;2023-01-15T08:12:35;6.00;99.90
42715;DHT22;28351;51.480;5.706;2023-01-15T08:15:19;6.00;99.90
42715;DHT22;28351;51.480;5.706;2023-01-15T08:17:46;6.00;99.90
42715;DHT22;28351;51.480;5.706;2023-01-15T08:20:23;5.90;99.90
42715;DHT22;28351;51.480;5.706;2023-01-15T08:22:49;5.90;99.90
42715;DHT22;28351;51.480;5.706;2023-01-15T08:25:20;5.80;99.90
42715;DHT22;28351;51.480;5.706;2023-01-15T08:27:46;5.70;99.90
42715;DHT22;28351;51.480;5.706;2023-01-15T08:30:17;5.80;99.90
42715;DHT22;28351;51.480;5.706;2023-01-15T08:32:44;5.80;99.90
42715;DHT22;28351;51.480;5.706;2023-01-15T08:35:10;5.80;99.90
42715;DHT22;28351;51.480;5.706;2023-01-15T08:37:37;5.70;99.90
42715;DHT22;28351;51.480;5.706;2023-01-15T08:40:04;5.70;99.90
42715;DHT22;28351;51.480;5.706;2023-01-15T08:42:33;5.80;99.90
42715;DHT22;28351;51.480;5.706;2023-01-15T08:44:59;5.70;99.90
42715;DHT22;28351;51.480;5.706;2023-01-15T08:47:24;5.80;99.90
42715;DHT22;28351;51.480;5.706;2023-01-15T08:49:50;5.80;99.90
42715;DHT22;28351;51.480;5.706;2023-01-15T08:52:15;5.80;99.90
42715;DHT22;28351;51.480;5.706;2023-01-15T08:54:41;5.80;99.90
42715;DHT22;28351;51.480;5.706;2023-01-15T08:57:09;5.80;99.90
42715;DHT22;28351;51.480;5.706;2023-01-15T08:59:36;5.80;99.90
42715;DHT22;28351;51.480;5.706;2023-01-15T09:02:02;5.80;99.90
42715;DHT22;28351;51.480;5.706;2023-01-15T09:04:30;5.90;99.90
42715;DHT22;28351;51.480;5.706;2023-01-15T09:06:56;6.00;99.90
42715;DHT22;28351;51.480;5.706;2023-01-15T09:09:22;6.00;99.90
42715;DHT22;28351;51.480;5.706;2023-01-15T09:11:47;6.10;99.90
42715;DHT22;28351;51.480;5.706;2023-01-15T09:14:14;6.10;99.90
42715;DHT22;28351;51.480;5.706;2023-01-15T09:16:40;6.10;99.90
42715;DHT22;28351;51.480;5.706;2023-01-15T09:19:06;6.10;99.90
42715;DHT22;28351;51.480;5.706;2023-01-15T09:21:32;6.10;99.90
42715;DHT22;28351;51.480;5.706;2023-01-15T09:23:58;6.20;99.90
42715;DHT22;28351;51.480;5.706;2023-01-15T09:26:30;6.20;99.90
42715;DHT22;28351;51.480;5.706;2023-01-15T09:28:56;6.30;99.90
42715;DHT22;28351;51.480;5.706;2023-01-15T09:31:23;6.30;99.90
42715;DHT22;28351;51.480;5.706;2023-01-15T09:33:48;6.40;99.90
42715;DHT22;28351;51.480;5.706;2023-01-15T09:36:40;6.30;99.90
42715;DHT22;28351;51.480;5.706;2023-01-15T09:39:06;6.40;99.90
42715;DHT22;28351;51.480;5.706;2023-01-15T09:41:54;6.40;99.90
42715;DHT22;28351;51.480;5.706;2023-01-15T09:47:26;6.70;99.90
42715;DHT22;28351;51.480;5.706;2023-01-15T09:57:30;7.20;99.90
42715;DHT22;28351;51.480;5.706;2023-01-15T09:59:57;7.40;99.90
42715;DHT22;28351;51.480;5.706;2023-01-15T10:05:35;7.40;99.90
42715;DHT22;28351;51.480;5.706;2023-01-15T10:10:32;7.00;99.90
42715;DHT22;28351;51.480;5.706;2023-01-15T10:13:46;7.30;99.90
42715;DHT22;28351;51.480;5.706;2023-01-15T10:15:53;7.30;99.90
42715;DHT22;28351;51.480;5.706;2023-01-15T10:18:22;7.10;99.90
42715;DHT22;28351;51.480;5.706;2023-01-15T10:21:00;7.10;99.90
42715;DHT22;28351;51.480;5.706;2023-01-15T10:23:58;7.00;99.90
42715;DHT22;28351;51.480;5.706;2023-01-15T10:26:38;7.20;99.90
42715;DHT22;28351;51.480;5.706;2023-01-15T10:32:02;7.40;99.90
42715;DHT22;28351;51.480;5.706;2023-01-15T10:34:48;7.30;99.90
42715;DHT22;28351;51.480;5.706;2023-01-15T10:37:32;7.30;99.90
42715;DHT22;28351;51.480;5.706;2023-01-15T10:45:39;7.30;99.90
42715;DHT22;28351;51.480;5.706;2023-01-15T10:48:51;7.30;99.90
42715;DHT22;28351;51.480;5.706;2023-01-15T10:51:42;7.30;99.90
42715;DHT22;28351;51.480;5.706;2023-01-15T10:59:47;7.50;99.90
42715;DHT22;28351;51.480;5.706;2023-01-15T11:02:26;7.50;99.90
42715;DHT22;28351;51.480;5.706;2023-01-15T11:04:52;7.50;99.90
42715;DHT22;28351;51.480;5.706;2023-01-15T11:07:25;7.50;99.90
42715;DHT22;28351;51.480;5.706;2023-01-15T11:09:53;7.50;99.90
42715;DHT22;28351;51.480;5.706;2023-01-15T11:12:25;7.60;99.90
42715;DHT22;28351;51.480;5.706;2023-01-15T11:14:52;7.70;99.90
42715;DHT22;28351;51.480;5.706;2023-01-15T11:17:43;7.70;99.90
42715;DHT22;28351;51.480;5.706;2023-01-15T11:20:31;7.60;99.90
42715;DHT22;28351;51.480;5.706;2023-01-15T11:23:15;7.70;99.90
42715;DHT22;28351;51.480;5.706;2023-01-15T11:25:57;7.70;99.90
42715;DHT22;28351;51.480;5.706;2023-01-15T11:28:50;7.70;99.90
42715;DHT22;28351;51.480;5.706;2023-01-15T11:31:16;7.80;99.90
42715;DHT22;28351;51.480;5.706;2023-01-15T11:34:00;7.80;99.90
42715;DHT22;28351;51.480;5.706;2023-01-15T11:36:27;7.70;99.90
42715;DHT22;28351;51.480;5.706;2023-01-15T11:38:54;7.80;99.90
42715;DHT22;28351;51.480;5.706;2023-01-15T11:43:53;8.20;99.90
42715;DHT22;28351;51.480;5.706;2023-01-15T11:46:37;8.20;99.90
42715;DHT22;28351;51.480;5.706;2023-01-15T11:49:21;8.30;99.90
42715;DHT22;28351;51.480;5.706;2023-01-15T11:52:09;8.60;99.90
42715;DHT22;28351;51.480;5.706;2023-01-15T11:54:41;8.10;99.90
42715;DHT22;28351;51.480;5.706;2023-01-15T11:57:08;8.60;99.90
42715;DHT22;28351;51.480;5.706;2023-01-15T11:59:35;8.20;99.90
42715;DHT22;28351;51.480;5.706;2023-01-15T12:04:53;9.00;99.90
42715;DHT22;28351;51.480;5.706;2023-01-15T12:07:23;8.40;99.90
42715;DHT22;28351;51.480;5.706;2023-01-15T12:15:41;9.30;99.90
42715;DHT22;28351;51.480;5.706;2023-01-15T12:18:28;8.80;99.90
42715;DHT22;28351;51.480;5.706;2023-01-15T12:26:49;8.20;99.90
42715;DHT22;28351;51.480;5.706;2023-01-15T12:29:39;8.00;99.90
42715;DHT22;28351;51.480;5.706;2023-01-15T12:32:12;7.80;99.90
42715;DHT22;28351;51.480;5.706;2023-01-15T12:37:26;7.90;99.90
42715;DHT22;28351;51.480;5.706;2023-01-15T12:40:21;8.00;99.90
42715;DHT22;28351;51.480;5.706;2023-01-15T12:42:47;7.80;99.90
42715;DHT22;28351;51.480;5.706;2023-01-15T12:45:51;7.80;99.90
42715;DHT22;28351;51.480;5.706;2023-01-15T12:48:26;7.80;99.90
42715;DHT22;28351;51.480;5.706;2023-01-15T12:50:56;7.90;99.90
42715;DHT22;28351;51.480;5.706;2023-01-15T12:56:13;7.80;99.90
42715;DHT22;28351;51.480;5.706;2023-01-15T12:58:48;8.10;99.90
42715;DHT22;28351;51.480;5.706;2023-01-15T13:01:20;7.80;99.90
42715;DHT22;28351;51.480;5.706;2023-01-15T13:06:22;7.30;99.90
42715;DHT22;28351;51.480;5.706;2023-01-15T13:11:26;7.30;99.90
42715;DHT22;28351;51.480;5.706;2023-01-15T13:13:51;7.30;99.90
42715;DHT22;28351;51.480;5.706;2023-01-15T13:21:36;7.60;99.90
42715;DHT22;28351;51.480;5.706;2023-01-15T13:24:18;7.70;99.90
42715;DHT22;28351;51.480;5.706;2023-01-15T13:26:51;7.90;99.90
42715;DHT22;28351;51.480;5.706;2023-01-15T13:32:05;8.00;99.90
42715;DHT22;28351;51.480;5.706;2023-01-15T13:34:55;8.00;99.90
42715;DHT22;28351;51.480;5.706;2023-01-15T13:37:28;8.10;99.90
42715;DHT22;28351;51.480;5.706;2023-01-15T13:40:03;8.30;99.90
42715;DHT22;28351;51.480;5.706;2023-01-15T13:42:31;8.20;99.90
42715;DHT22;28351;51.480;5.706;2023-01-15T13:47:48;7.90;99.90
42715;DHT22;28351;51.480;5.706;2023-01-15T13:50:29;7.90;99.90
42715;DHT22;28351;51.480;5.706;2023-01-15T13:52:59;7.90;99.90
42715;DHT22;28351;51.480;5.706;2023-01-15T13:55:35;8.00;99.90
42715;DHT22;28351;51.480;5.706;2023-01-15T13:58:02;7.80;99.90
42715;DHT22;28351;51.480;5.706;2023-01-15T14:00:29;7.90;99.90
42715;DHT22;28351;51.480;5.706;2023-01-15T14:02:57;7.90;99.90
42715;DHT22;28351;51.480;5.706;2023-01-15T14:05:33;7.90;99.90
42715;DHT22;28351;51.480;5.706;2023-01-15T14:08:01;7.90;99.90
42715;DHT22;28351;51.480;5.706;2023-01-15T14:21:39;7.80;99.90
42715;DHT22;28351;51.480;5.706;2023-01-15T14:27:12;7.90;99.90
42715;DHT22;28351;51.480;5.706;2023-01-15T14:34:58;7.60;99.90
42715;DHT22;28351;51.480;5.706;2023-01-15T14:37:35;7.60;99.90
42715;DHT22;28351;51.480;5.706;2023-01-15T14:40:17;7.60;99.90
42715;DHT22;28351;51.480;5.706;2023-01-15T14:42:48;7.60;99.90
42715;DHT22;28351;51.480;5.706;2023-01-15T14:51:07;7.50;99.90
42715;DHT22;28351;51.480;5.706;2023-01-15T14:53:46;7.60;99.90
42715;DHT22;28351;51.480;5.706;2023-01-15T14:56:29;7.60;99.90
42715;DHT22;28351;51.480;5.706;2023-01-15T15:01:50;7.60;99.90
42715;DHT22;28351;51.480;5.706;2023-01-15T15:06:50;7.60;99.90
42715;DHT22;28351;51.480;5.706;2023-01-15T15:26:20;7.50;99.90
42715;DHT22;28351;51.480;5.706;2023-01-15T15:31:45;7.50;99.90
42715;DHT22;28351;51.480;5.706;2023-01-15T15:34:26;7.50;99.90
42715;DHT22;28351;51.480;5.706;2023-01-15T15:36:53;7.50;99.90
42715;DHT22;28351;51.480;5.706;2023-01-15T15:39:44;7.40;99.90
42715;DHT22;28351;51.480;5.706;2023-01-15T15:48:18;7.30;99.90
42715;DHT22;28351;51.480;5.706;2023-01-15T15:51:04;7.30;99.90
42715;DHT22;28351;51.480;5.706;2023-01-15T15:53:30;7.30;99.90
42715;DHT22;28351;51.480;5.706;2023-01-15T15:55:57;7.30;99.90
42715;DHT22;28351;51.480;5.706;2023-01-15T15:58:30;7.30;99.90
42715;DHT22;28351;51.480;5.706;2023-01-15T16:00:57;7.20;99.90
42715;DHT22;28351;51.480;5.706;2023-01-15T16:03:26;7.20;99.90
42715;DHT22;28351;51.480;5.706;2023-01-15T16:06:03;7.30;99.90
42715;DHT22;28351;51.480;5.706;2023-01-15T16:08:31;7.30;99.90
42715;DHT22;28351;51.480;5.706;2023-01-15T16:11:05;7.20;99.90
42715;DHT22;28351;51.480;5.706;2023-01-15T16:13:34;7.20;99.90
42715;DHT22;28351;51.480;5.706;2023-01-15T16:16:03;7.20;99.90
42715;DHT22;28351;51.480;5.706;2023-01-15T16:18:38;7.20;99.90
42715;DHT22;28351;51.480;5.706;2023-01-15T16:21:09;7.20;99.90
42715;DHT22;28351;51.480;5.706;2023-01-15T16:23:35;7.20;99.90
42715;DHT22;28351;51.480;5.706;2023-01-15T16:26:11;7.10;99.90
42715;DHT22;28351;51.480;5.706;2023-01-15T16:28:40;7.10;99.90
42715;DHT22;28351;51.480;5.706;2023-01-15T16:31:10;7.10;99.90
42715;DHT22;28351;51.480;5.706;2023-01-15T16:33:39;7.10;99.90
42715;DHT22;28351;51.480;5.706;2023-01-15T16:36:06;7.00;99.90
42715;DHT22;28351;51.480;5.706;2023-01-15T16:38:38;7.00;99.90
42715;DHT22;28351;51.480;5.706;2023-01-15T16:41:04;7.10;99.90
42715;DHT22;28351;51.480;5.706;2023-01-15T16:43:30;7.10;99.90
42715;DHT22;28351;51.480;5.706;2023-01-15T16:46:02;7.00;99.90
42715;DHT22;28351;51.480;5.706;2023-01-15T16:48:32;7.00;99.90
42715;DHT22;28351;51.480;5.706;2023-01-15T16:53:51;7.00;99.90
42715;DHT22;28351;51.480;5.706;2023-01-15T17:02:14;6.90;99.90
42715;DHT22;28351;51.480;5.706;2023-01-15T17:04:45;6.80;99.90
42715;DHT22;28351;51.480;5.706;2023-01-15T17:07:18;6.70;99.90
42715;DHT22;28351;51.480;5.706;2023-01-15T17:09:49;6.60;99.90
42715;DHT22;28351;51.480;5.706;2023-01-15T17:12:28;6.70;99.90
42715;DHT22;28351;51.480;5.706;2023-01-15T17:17:43;6.60;99.90
42715;DHT22;28351;51.480;5.706;2023-01-15T17:20:11;6.60;99.90
42715;DHT22;28351;51.480;5.706;2023-01-15T17:22:40;6.50;99.90
42715;DHT22;28351;51.480;5.706;2023-01-15T17:25:27;6.50;99.90
42715;DHT22;28351;51.480;5.706;2023-01-15T17:28:00;6.50;99.90
42715;DHT22;28351;51.480;5.706;2023-01-15T17:30:27;6.40;99.90
42715;DHT22;28351;51.480;5.706;2023-01-15T17:33:00;6.40;99.90
42715;DHT22;28351;51.480;5.706;2023-01-15T17:35:31;6.40;99.90
42715;DHT22;28351;51.480;5.706;2023-01-15T17:37:57;6.50;99.90
42715;DHT22;28351;51.480;5.706;2023-01-15T17:40:23;6.50;99.90
42715;DHT22;28351;51.480;5.706;2023-01-15T17:42:49;6.50;99.90
42715;DHT22;28351;51.480;5.706;2023-01-15T17:45:24;6.50;99.90
42715;DHT22;28351;51.480;5.706;2023-01-15T17:47:50;6.60;99.90
42715;DHT22;28351;51.480;5.706;2023-01-15T17:50:16;6.60;99.90
42715;DHT22;28351;51.480;5.706;2023-01-15T17:52:42;6.60;99.90
42715;DHT22;28351;51.480;5.706;2023-01-15T17:55:12;6.60;99.90
42715;DHT22;28351;51.480;5.706;2023-01-15T17:57:57;6.60;99.90
42715;DHT22;28351;51.480;5.706;2023-01-15T18:00:41;6.60;99.90
42715;DHT22;28351;51.480;5.706;2023-01-15T18:03:25;6.60;99.90
42715;DHT22;28351;51.480;5.706;2023-01-15T18:06:13;6.60;99.90
42715;DHT22;28351;51.480;5.706;2023-01-15T18:08:45;6.50;99.90
42715;DHT22;28351;51.480;5.706;2023-01-15T18:11:13;6.40;99.90
42715;DHT22;28351;51.480;5.706;2023-01-15T18:13:39;6.30;99.90
42715;DHT22;28351;51.480;5.706;2023-01-15T18:16:06;6.10;99.90
42715;DHT22;28351;51.480;5.706;2023-01-15T18:18:32;6.10;99.90
42715;DHT22;28351;51.480;5.706;2023-01-15T18:20:59;6.00;99.90
42715;DHT22;28351;51.480;5.706;2023-01-15T18:23:25;5.90;99.90
42715;DHT22;28351;51.480;5.706;2023-01-15T18:25:51;5.90;99.90
42715;DHT22;28351;51.480;5.706;2023-01-15T18:28:16;5.90;99.90
42715;DHT22;28351;51.480;5.706;2023-01-15T18:30:42;5.80;99.90
42715;DHT22;28351;51.480;5.706;2023-01-15T18:33:07;5.80;99.90
42715;DHT22;28351;51.480;5.706;2023-01-15T18:35:33;5.70;99.90
42715;DHT22;28351;51.480;5.706;2023-01-15T18:37:59;5.80;99.90
42715;DHT22;28351;51.480;5.706;2023-01-15T18:40:25;5.80;99.90
42715;DHT22;28351;51.480;5.706;2023-01-15T18:42:58;5.70;99.90
42715;DHT22;28351;51.480;5.706;2023-01-15T18:45:50;5.60;99.90